• Join FlightAware (Why Join?)
  • Login
  • US Flag 
07:28AM EDT


 

Airport Tracker/Info


-or-


 

Live Flight TrackerFlight Track Log ✈ JIA2497 ✈ 19-May-2013 ✈ KPGV - KCLT

Flight Track Log - Related Links

Times and Time Zones

All times are in EDT time to prevent confusion due to time zone crossing. See the JIA2497 flight status page for this flight to view local times or setup timezone preferences in your user account.

Time Position Orientation Groundspeed Altitude Reporting Facility
EDT Latitude Longitude Course Direction KTS MPH feet Rate Location/Type
08:07PM 35.6772 -78.0092 276° West  Level FlightAware Approximate
08:11PM 35.6861 -77.3539 276° West 304 350 4,200  Level Washington Center
08:12PM 35.7311 -77.4267 307° West 250 288 7,500 3,120 Climbing Washington Center
08:13PM 35.7169 -77.5158 259° West 206 237 10,400 2,760 Climbing Washington Center
08:14PM 35.7217 -77.6131 273° West 250 288 13,100 2,340 Climbing Washington Center
08:15PM 35.7261 -77.7183 273° West 284 327 15,200 2,160 Climbing Washington Center
08:16PM 35.7325 -77.8258 274° West 305 351 17,400 1,860 Climbing Washington Center
08:17PM 35.7389 -77.9361 274° West 318 366 18,900 1,560 Climbing Washington Center
08:18PM 35.7447 -78.0514 274° West 331 381 20,600 1,440 Climbing Washington Center
08:19PM 35.7508 -78.1667 274° West 331 381 21,900 660 Climbing Washington Center
08:20PM 35.7583 -78.2950 274° West 350 403 22,000  Climbing Washington Center
08:21PM 35.7658 -78.4233 274° West 372 428 22,000  Level Washington Center
08:22PM 35.7711 -78.5539 273° West 383 441 22,000  Level Washington Center
08:23PM 35.7761 -78.6822 273° West 383 441 22,000  Level Washington Center
08:24PM 35.7811 -78.8078 273° West 383 441 22,000  Level Washington Center
08:25PM 35.7861 -78.9308 273° West 378 435 22,000  Level Washington Center
08:26PM 35.7908 -79.0567 273° West 378 435 22,000 -60 Level Washington Center
08:28PM 35.8000 -79.3047 273° West 366 421 21,900 -840 Descending Atlanta Center
08:29PM 35.8072 -79.4400 274° West 366 421 19,600 -2,100 Descending Atlanta Center
08:30PM 35.8097 -79.5578 272° West 361 415 17,800 -1,320 Descending Atlanta Center
08:31PM 35.8114 -79.6650 271° West 342 394 17,000 -420 Descending Atlanta Center
08:32PM 35.8114 -79.7856 270° West 337 388 17,000  Level Atlanta Center
08:33PM 35.8114 -79.9033 270° West 342 394 17,000  Level Atlanta Center
08:34PM 35.8111 -80.0261 270° West 356 410 17,000 -60 Level Atlanta Center
08:35PM 35.8106 -80.1364 270° West 362 417 16,900 -480 Descending Atlanta Center
08:35PM 35.8122 -80.1850 272° West 364 419 16,400 -1,740 Descending Atlanta Center
08:36PM 35.8122 -80.2567 270° West 362 417 15,200 -1,800 Descending Atlanta Center
08:36PM 35.8136 -80.3000 272° West 337 388 14,600 -1,920 Descending Atlanta Center
08:37PM 35.8114 -80.3692 268° West 337 388 13,300 -1,620 Descending Atlanta Center
08:37PM 35.8128 -80.4128 272° West 308 354 13,000 -720 Descending Atlanta Center
08:38PM 35.7811 -80.4706 236° Southwest 287 330 12,600 -1,440 Descending Atlanta Center
08:39PM 35.7117 -80.5247 212° Southwest 278 320 10,600 -2,100 Descending Atlanta Center
08:39PM 35.6892 -80.5358 202° Southwest 289 333 9,900 -2,100 Descending Atlanta Center
08:40PM 35.6400 -80.5711 210° Southwest 285 328 8,500 -2,040 Descending Atlanta Center
08:41PM 35.5744 -80.6147 208° Southwest 285 328 6,500 -1,800 Descending Atlanta Center
08:41PM 35.5561 -80.6308 216° Southwest 268 308 6,100 -540 Descending Atlanta Center
08:42PM 35.5111 -80.6608 208° Southwest 272 313 6,000 -120 Descending Atlanta Center
08:42PM 35.4989 -80.6689 208° Southwest 251 289 6,000 -120 Level Atlanta Center
08:43PM 35.4517 -80.7014 209° Southwest 258 297 5,900 -540 Descending Atlanta Center
08:43PM 35.4314 -80.7175 213° Southwest 242 278 5,400 -1,380 Descending Atlanta Center
08:44PM 35.3800 -80.7528 209° Southwest 206 237 4,000 -720 Descending Atlanta Center
08:45PM 35.3369 -80.7800 207° Southwest 174 200 4,000  Level Atlanta Center